sensor_id;sensor_type;location;lat;lon;timestamp;P1;durP1;ratioP1;P2;durP2;ratioP2
18748;SDS011;9503;53.560;10.246;2022-09-24T00:00:36;5.97;;;5.37;;
18748;SDS011;9503;53.560;10.246;2022-09-24T00:03:03;10.13;;;5.90;;
18748;SDS011;9503;53.560;10.246;2022-09-24T00:05:29;8.63;;;5.03;;
18748;SDS011;9503;53.560;10.246;2022-09-24T00:07:57;7.20;;;5.87;;
18748;SDS011;9503;53.560;10.246;2022-09-24T00:10:23;10.30;;;5.77;;
18748;SDS011;9503;53.560;10.246;2022-09-24T00:12:50;7.30;;;5.10;;
18748;SDS011;9503;53.560;10.246;2022-09-24T00:15:16;7.80;;;5.90;;
18748;SDS011;9503;53.560;10.246;2022-09-24T00:17:43;7.10;;;5.40;;
18748;SDS011;9503;53.560;10.246;2022-09-24T00:20:11;5.53;;;5.03;;
18748;SDS011;9503;53.560;10.246;2022-09-24T00:22:37;13.63;;;5.20;;
18748;SDS011;9503;53.560;10.246;2022-09-24T00:25:06;7.97;;;5.07;;
18748;SDS011;9503;53.560;10.246;2022-09-24T00:27:51;8.87;;;5.03;;
18748;SDS011;9503;53.560;10.246;2022-09-24T00:30:17;7.13;;;5.07;;
18748;SDS011;9503;53.560;10.246;2022-09-24T00:32:43;6.53;;;4.53;;
18748;SDS011;9503;53.560;10.246;2022-09-24T00:35:10;5.60;;;5.00;;
18748;SDS011;9503;53.560;10.246;2022-09-24T00:37:36;6.00;;;4.63;;
18748;SDS011;9503;53.560;10.246;2022-09-24T00:40:03;10.17;;;5.50;;
18748;SDS011;9503;53.560;10.246;2022-09-24T00:42:32;14.33;;;5.93;;
18748;SDS011;9503;53.560;10.246;2022-09-24T00:44:59;6.93;;;5.30;;
18748;SDS011;9503;53.560;10.246;2022-09-24T00:47:32;8.80;;;5.60;;
18748;SDS011;9503;53.560;10.246;2022-09-24T00:50:02;6.27;;;4.73;;
18748;SDS011;9503;53.560;10.246;2022-09-24T00:52:33;6.07;;;4.80;;
18748;SDS011;9503;53.560;10.246;2022-09-24T00:55:02;8.63;;;5.50;;
18748;SDS011;9503;53.560;10.246;2022-09-24T00:57:30;9.80;;;6.53;;
18748;SDS011;9503;53.560;10.246;2022-09-24T00:59:57;9.00;;;6.00;;
18748;SDS011;9503;53.560;10.246;2022-09-24T01:02:24;8.40;;;6.43;;
18748;SDS011;9503;53.560;10.246;2022-09-24T01:04:51;7.67;;;6.63;;
18748;SDS011;9503;53.560;10.246;2022-09-24T01:07:18;9.97;;;6.90;;
18748;SDS011;9503;53.560;10.246;2022-09-24T01:09:45;9.77;;;6.03;;
18748;SDS011;9503;53.560;10.246;2022-09-24T01:12:13;6.90;;;6.20;;
18748;SDS011;9503;53.560;10.246;2022-09-24T01:14:49;6.53;;;5.83;;
18748;SDS011;9503;53.560;10.246;2022-09-24T01:17:31;8.40;;;6.30;;
18748;SDS011;9503;53.560;10.246;2022-09-24T01:23:06;7.67;;;5.57;;
18748;SDS011;9503;53.560;10.246;2022-09-24T01:25:43;10.37;;;5.30;;
18748;SDS011;9503;53.560;10.246;2022-09-24T01:28:28;8.40;;;5.37;;
18748;SDS011;9503;53.560;10.246;2022-09-24T01:31:04;4.80;;;4.30;;
18748;SDS011;9503;53.560;10.246;2022-09-24T01:33:37;7.73;;;5.80;;
18748;SDS011;9503;53.560;10.246;2022-09-24T01:36:04;8.67;;;5.37;;
18748;SDS011;9503;53.560;10.246;2022-09-24T01:38:34;6.97;;;5.37;;
18748;SDS011;9503;53.560;10.246;2022-09-24T01:41:05;6.17;;;5.47;;
18748;SDS011;9503;53.560;10.246;2022-09-24T01:43:34;8.03;;;5.20;;
18748;SDS011;9503;53.560;10.246;2022-09-24T01:46:04;5.33;;;4.67;;
18748;SDS011;9503;53.560;10.246;2022-09-24T01:48:32;6.10;;;5.47;;
18748;SDS011;9503;53.560;10.246;2022-09-24T01:51:01;10.17;;;6.67;;
18748;SDS011;9503;53.560;10.246;2022-09-24T01:53:34;9.20;;;6.70;;
18748;SDS011;9503;53.560;10.246;2022-09-24T01:56:07;9.27;;;5.80;;
18748;SDS011;9503;53.560;10.246;2022-09-24T01:58:39;7.67;;;6.40;;
18748;SDS011;9503;53.560;10.246;2022-09-24T02:01:13;6.77;;;6.00;;
18748;SDS011;9503;53.560;10.246;2022-09-24T02:03:44;9.33;;;6.67;;
18748;SDS011;9503;53.560;10.246;2022-09-24T02:06:16;9.33;;;6.50;;
18748;SDS011;9503;53.560;10.246;2022-09-24T02:08:49;7.13;;;6.03;;
18748;SDS011;9503;53.560;10.246;2022-09-24T02:11:16;9.63;;;6.50;;
18748;SDS011;9503;53.560;10.246;2022-09-24T02:13:46;6.83;;;6.13;;
18748;SDS011;9503;53.560;10.246;2022-09-24T02:16:19;10.40;;;6.83;;
18748;SDS011;9503;53.560;10.246;2022-09-24T02:18:48;8.43;;;6.70;;
18748;SDS011;9503;53.560;10.246;2022-09-24T02:21:18;8.57;;;6.73;;
18748;SDS011;9503;53.560;10.246;2022-09-24T02:23:46;7.90;;;6.53;;
18748;SDS011;9503;53.560;10.246;2022-09-24T02:26:19;7.87;;;6.70;;
18748;SDS011;9503;53.560;10.246;2022-09-24T02:28:45;9.47;;;6.90;;
18748;SDS011;9503;53.560;10.246;2022-09-24T02:31:13;7.77;;;7.00;;
18748;SDS011;9503;53.560;10.246;2022-09-24T02:33:45;11.97;;;8.13;;
18748;SDS011;9503;53.560;10.246;2022-09-24T02:36:31;10.03;;;7.87;;
18748;SDS011;9503;53.560;10.246;2022-09-24T02:38:59;8.50;;;7.47;;
18748;SDS011;9503;53.560;10.246;2022-09-24T02:41:25;13.03;;;7.80;;
18748;SDS011;9503;53.560;10.246;2022-09-24T02:43:54;9.80;;;7.97;;
18748;SDS011;9503;53.560;10.246;2022-09-24T02:46:21;8.87;;;7.80;;
18748;SDS011;9503;53.560;10.246;2022-09-24T02:48:49;9.17;;;6.80;;
18748;SDS011;9503;53.560;10.246;2022-09-24T02:51:16;14.53;;;8.00;;
18748;SDS011;9503;53.560;10.246;2022-09-24T02:53:42;9.37;;;8.03;;
18748;SDS011;9503;53.560;10.246;2022-09-24T02:56:09;11.17;;;7.97;;
18748;SDS011;9503;53.560;10.246;2022-09-24T02:58:35;9.03;;;7.80;;
18748;SDS011;9503;53.560;10.246;2022-09-24T03:01:02;10.77;;;8.07;;
18748;SDS011;9503;53.560;10.246;2022-09-24T03:03:29;9.53;;;6.73;;
18748;SDS011;9503;53.560;10.246;2022-09-24T03:05:57;7.70;;;6.70;;
18748;SDS011;9503;53.560;10.246;2022-09-24T03:08:24;7.77;;;6.97;;
18748;SDS011;9503;53.560;10.246;2022-09-24T03:10:51;9.73;;;8.37;;
18748;SDS011;9503;53.560;10.246;2022-09-24T03:13:20;10.37;;;8.47;;
18748;SDS011;9503;53.560;10.246;2022-09-24T03:15:46;10.40;;;8.63;;
18748;SDS011;9503;53.560;10.246;2022-09-24T03:18:13;13.90;;;8.17;;
18748;SDS011;9503;53.560;10.246;2022-09-24T03:20:41;9.10;;;8.23;;
18748;SDS011;9503;53.560;10.246;2022-09-24T03:23:09;10.57;;;7.83;;
18748;SDS011;9503;53.560;10.246;2022-09-24T03:25:35;9.60;;;8.10;;
18748;SDS011;9503;53.560;10.246;2022-09-24T03:28:02;10.87;;;8.13;;
18748;SDS011;9503;53.560;10.246;2022-09-24T03:30:28;12.67;;;9.63;;
18748;SDS011;9503;53.560;10.246;2022-09-24T03:33:13;14.57;;;10.53;;
18748;SDS011;9503;53.560;10.246;2022-09-24T03:35:40;13.00;;;10.50;;
18748;SDS011;9503;53.560;10.246;2022-09-24T03:38:06;16.93;;;10.97;;
18748;SDS011;9503;53.560;10.246;2022-09-24T03:40:34;14.60;;;10.07;;
18748;SDS011;9503;53.560;10.246;2022-09-24T03:43:01;15.00;;;10.13;;
18748;SDS011;9503;53.560;10.246;2022-09-24T03:45:27;11.70;;;9.77;;
18748;SDS011;9503;53.560;10.246;2022-09-24T03:47:54;13.03;;;10.17;;
18748;SDS011;9503;53.560;10.246;2022-09-24T03:50:20;12.97;;;9.60;;
18748;SDS011;9503;53.560;10.246;2022-09-24T03:52:47;12.97;;;9.53;;
18748;SDS011;9503;53.560;10.246;2022-09-24T03:55:13;14.47;;;9.80;;
18748;SDS011;9503;53.560;10.246;2022-09-24T03:57:41;11.63;;;8.90;;
18748;SDS011;9503;53.560;10.246;2022-09-24T04:00:08;17.83;;;9.77;;
18748;SDS011;9503;53.560;10.246;2022-09-24T04:02:36;12.17;;;8.93;;
18748;SDS011;9503;53.560;10.246;2022-09-24T04:05:03;12.23;;;9.27;;
18748;SDS011;9503;53.560;10.246;2022-09-24T04:07:29;16.03;;;9.47;;
18748;SDS011;9503;53.560;10.246;2022-09-24T04:09:56;11.10;;;8.70;;
18748;SDS011;9503;53.560;10.246;2022-09-24T04:12:22;9.27;;;7.53;;
18748;SDS011;9503;53.560;10.246;2022-09-24T04:14:50;11.27;;;8.53;;
18748;SDS011;9503;53.560;10.246;2022-09-24T04:17:17;18.37;;;9.23;;
18748;SDS011;9503;53.560;10.246;2022-09-24T04:19:48;10.53;;;8.63;;
18748;SDS011;9503;53.560;10.246;2022-09-24T04:22:17;14.17;;;8.87;;
18748;SDS011;9503;53.560;10.246;2022-09-24T04:24:44;12.23;;;9.20;;
18748;SDS011;9503;53.560;10.246;2022-09-24T04:27:11;10.13;;;8.57;;
18748;SDS011;9503;53.560;10.246;2022-09-24T04:29:37;9.50;;;8.53;;
18748;SDS011;9503;53.560;10.246;2022-09-24T04:32:05;11.70;;;9.50;;
18748;SDS011;9503;53.560;10.246;2022-09-24T04:34:32;14.03;;;8.93;;
18748;SDS011;9503;53.560;10.246;2022-09-24T04:36:58;12.80;;;8.80;;
18748;SDS011;9503;53.560;10.246;2022-09-24T04:39:25;12.07;;;9.00;;
18748;SDS011;9503;53.560;10.246;2022-09-24T04:41:52;11.50;;;8.30;;
18748;SDS011;9503;53.560;10.246;2022-09-24T04:44:18;10.53;;;8.73;;
18748;SDS011;9503;53.560;10.246;2022-09-24T04:46:45;12.97;;;8.77;;
18748;SDS011;9503;53.560;10.246;2022-09-24T04:49:13;13.17;;;9.37;;
18748;SDS011;9503;53.560;10.246;2022-09-24T04:51:41;19.70;;;9.80;;
18748;SDS011;9503;53.560;10.246;2022-09-24T04:54:08;10.63;;;9.47;;
18748;SDS011;9503;53.560;10.246;2022-09-24T04:56:34;11.00;;;9.23;;
18748;SDS011;9503;53.560;10.246;2022-09-24T04:59:01;11.87;;;9.40;;
18748;SDS011;9503;53.560;10.246;2022-09-24T05:01:27;13.03;;;10.03;;
18748;SDS011;9503;53.560;10.246;2022-09-24T05:03:54;13.87;;;9.80;;
18748;SDS011;9503;53.560;10.246;2022-09-24T05:06:28;11.90;;;9.57;;
18748;SDS011;9503;53.560;10.246;2022-09-24T05:08:56;14.53;;;11.10;;
18748;SDS011;9503;53.560;10.246;2022-09-24T05:11:24;14.73;;;11.57;;
18748;SDS011;9503;53.560;10.246;2022-09-24T05:13:51;16.87;;;12.40;;
18748;SDS011;9503;53.560;10.246;2022-09-24T05:16:20;18.07;;;12.77;;
18748;SDS011;9503;53.560;10.246;2022-09-24T05:18:47;18.60;;;13.30;;
18748;SDS011;9503;53.560;10.246;2022-09-24T05:21:16;19.83;;;12.87;;
18748;SDS011;9503;53.560;10.246;2022-09-24T05:23:45;16.13;;;12.13;;
18748;SDS011;9503;53.560;10.246;2022-09-24T05:26:12;18.17;;;13.20;;
18748;SDS011;9503;53.560;10.246;2022-09-24T05:28:56;20.13;;;12.93;;
18748;SDS011;9503;53.560;10.246;2022-09-24T05:31:23;19.90;;;13.50;;
18748;SDS011;9503;53.560;10.246;2022-09-24T05:33:51;17.27;;;13.07;;
18748;SDS011;9503;53.560;10.246;2022-09-24T05:36:18;18.30;;;13.20;;
18748;SDS011;9503;53.560;10.246;2022-09-24T05:38:46;18.73;;;13.90;;
18748;SDS011;9503;53.560;10.246;2022-09-24T05:41:14;20.23;;;13.83;;
18748;SDS011;9503;53.560;10.246;2022-09-24T05:43:41;17.93;;;13.40;;
18748;SDS011;9503;53.560;10.246;2022-09-24T05:46:08;18.40;;;13.50;;
18748;SDS011;9503;53.560;10.246;2022-09-24T05:48:42;16.97;;;13.07;;
18748;SDS011;9503;53.560;10.246;2022-09-24T05:51:11;18.30;;;13.83;;
18748;SDS011;9503;53.560;10.246;2022-09-24T05:53:38;18.03;;;13.83;;
18748;SDS011;9503;53.560;10.246;2022-09-24T05:56:07;20.73;;;13.33;;
18748;SDS011;9503;53.560;10.246;2022-09-24T05:58:37;17.23;;;13.37;;
18748;SDS011;9503;53.560;10.246;2022-09-24T06:01:05;18.77;;;13.30;;
18748;SDS011;9503;53.560;10.246;2022-09-24T06:03:35;20.80;;;13.80;;
18748;SDS011;9503;53.560;10.246;2022-09-24T06:06:03;19.30;;;13.83;;
18748;SDS011;9503;53.560;10.246;2022-09-24T06:08:32;20.70;;;14.57;;
18748;SDS011;9503;53.560;10.246;2022-09-24T06:11:02;19.20;;;14.23;;
18748;SDS011;9503;53.560;10.246;2022-09-24T06:13:32;20.40;;;15.17;;
18748;SDS011;9503;53.560;10.246;2022-09-24T06:15:59;20.60;;;14.77;;
18748;SDS011;9503;53.560;10.246;2022-09-24T06:18:26;19.83;;;14.80;;
18748;SDS011;9503;53.560;10.246;2022-09-24T06:20:53;22.97;;;16.63;;
18748;SDS011;9503;53.560;10.246;2022-09-24T06:23:21;19.23;;;14.60;;
18748;SDS011;9503;53.560;10.246;2022-09-24T06:25:49;20.47;;;15.10;;
18748;SDS011;9503;53.560;10.246;2022-09-24T06:28:17;20.30;;;15.13;;
18748;SDS011;9503;53.560;10.246;2022-09-24T06:30:48;18.37;;;14.67;;
18748;SDS011;9503;53.560;10.246;2022-09-24T06:33:18;19.50;;;14.80;;
18748;SDS011;9503;53.560;10.246;2022-09-24T06:35:46;20.20;;;14.30;;
18748;SDS011;9503;53.560;10.246;2022-09-24T06:38:18;20.97;;;15.83;;
18748;SDS011;9503;53.560;10.246;2022-09-24T06:40:48;21.40;;;15.70;;
18748;SDS011;9503;53.560;10.246;2022-09-24T06:43:17;22.13;;;15.47;;
18748;SDS011;9503;53.560;10.246;2022-09-24T06:45:46;24.50;;;18.17;;
18748;SDS011;9503;53.560;10.246;2022-09-24T06:48:15;26.93;;;19.60;;
18748;SDS011;9503;53.560;10.246;2022-09-24T06:50:43;26.77;;;18.93;;
18748;SDS011;9503;53.560;10.246;2022-09-24T06:53:13;25.93;;;19.63;;
18748;SDS011;9503;53.560;10.246;2022-09-24T06:55:43;28.60;;;19.80;;
18748;SDS011;9503;53.560;10.246;2022-09-24T06:58:13;31.70;;;19.97;;
18748;SDS011;9503;53.560;10.246;2022-09-24T07:00:54;30.40;;;20.67;;
18748;SDS011;9503;53.560;10.246;2022-09-24T07:03:24;29.50;;;19.67;;
18748;SDS011;9503;53.560;10.246;2022-09-24T07:05:53;31.13;;;20.40;;
18748;SDS011;9503;53.560;10.246;2022-09-24T07:08:21;30.83;;;20.47;;
18748;SDS011;9503;53.560;10.246;2022-09-24T07:10:49;28.10;;;19.93;;
18748;SDS011;9503;53.560;10.246;2022-09-24T07:13:18;30.40;;;21.80;;
18748;SDS011;9503;53.560;10.246;2022-09-24T07:15:49;28.07;;;20.10;;
18748;SDS011;9503;53.560;10.246;2022-09-24T07:18:21;33.13;;;21.97;;
18748;SDS011;9503;53.560;10.246;2022-09-24T07:20:52;30.47;;;20.30;;
18748;SDS011;9503;53.560;10.246;2022-09-24T07:23:21;30.83;;;21.10;;
18748;SDS011;9503;53.560;10.246;2022-09-24T07:25:53;32.90;;;21.60;;
18748;SDS011;9503;53.560;10.246;2022-09-24T07:28:22;31.37;;;21.23;;
18748;SDS011;9503;53.560;10.246;2022-09-24T07:30:54;29.50;;;21.40;;
18748;SDS011;9503;53.560;10.246;2022-09-24T07:33:25;31.80;;;21.10;;
18748;SDS011;9503;53.560;10.246;2022-09-24T07:35:52;30.43;;;21.50;;
18748;SDS011;9503;53.560;10.246;2022-09-24T07:38:20;31.07;;;21.87;;
18748;SDS011;9503;53.560;10.246;2022-09-24T07:40:48;31.87;;;21.80;;
18748;SDS011;9503;53.560;10.246;2022-09-24T07:43:16;32.43;;;22.33;;
18748;SDS011;9503;53.560;10.246;2022-09-24T07:45:43;31.60;;;22.30;;
18748;SDS011;9503;53.560;10.246;2022-09-24T07:48:11;31.50;;;21.63;;
18748;SDS011;9503;53.560;10.246;2022-09-24T07:50:48;34.37;;;22.23;;
18748;SDS011;9503;53.560;10.246;2022-09-24T07:53:16;34.37;;;22.47;;
18748;SDS011;9503;53.560;10.246;2022-09-24T07:55:43;35.20;;;22.13;;
18748;SDS011;9503;53.560;10.246;2022-09-24T07:58:12;33.10;;;21.23;;
18748;SDS011;9503;53.560;10.246;2022-09-24T08:00:40;30.70;;;20.40;;
18748;SDS011;9503;53.560;10.246;2022-09-24T08:03:08;31.67;;;19.67;;
18748;SDS011;9503;53.560;10.246;2022-09-24T08:05:40;31.37;;;20.70;;
18748;SDS011;9503;53.560;10.246;2022-09-24T08:08:10;30.27;;;19.83;;
18748;SDS011;9503;53.560;10.246;2022-09-24T08:10:38;28.67;;;19.60;;
18748;SDS011;9503;53.560;10.246;2022-09-24T08:13:09;31.33;;;20.70;;
18748;SDS011;9503;53.560;10.246;2022-09-24T08:15:43;33.80;;;21.00;;
18748;SDS011;9503;53.560;10.246;2022-09-24T08:18:12;30.30;;;19.80;;
18748;SDS011;9503;53.560;10.246;2022-09-24T08:20:40;30.57;;;20.73;;
18748;SDS011;9503;53.560;10.246;2022-09-24T08:23:08;29.60;;;21.60;;
18748;SDS011;9503;53.560;10.246;2022-09-24T08:25:36;34.37;;;22.10;;
18748;SDS011;9503;53.560;10.246;2022-09-24T08:28:07;32.80;;;21.40;;
18748;SDS011;9503;53.560;10.246;2022-09-24T08:30:36;30.83;;;21.00;;
18748;SDS011;9503;53.560;10.246;2022-09-24T08:33:06;33.63;;;20.47;;
18748;SDS011;9503;53.560;10.246;2022-09-24T08:35:33;31.27;;;20.70;;
18748;SDS011;9503;53.560;10.246;2022-09-24T08:38:01;35.50;;;22.17;;
18748;SDS011;9503;53.560;10.246;2022-09-24T08:40:29;34.40;;;21.83;;
18748;SDS011;9503;53.560;10.246;2022-09-24T08:43:04;36.10;;;22.77;;
18748;SDS011;9503;53.560;10.246;2022-09-24T08:45:43;35.50;;;22.30;;
18748;SDS011;9503;53.560;10.246;2022-09-24T08:48:33;36.43;;;23.83;;
18748;SDS011;9503;53.560;10.246;2022-09-24T08:51:06;37.07;;;22.73;;
18748;SDS011;9503;53.560;10.246;2022-09-24T08:53:41;34.03;;;22.30;;
18748;SDS011;9503;53.560;10.246;2022-09-24T08:56:16;40.10;;;23.73;;
18748;SDS011;9503;53.560;10.246;2022-09-24T08:58:57;43.90;;;25.10;;
18748;SDS011;9503;53.560;10.246;2022-09-24T09:01:30;41.20;;;25.63;;
18748;SDS011;9503;53.560;10.246;2022-09-24T09:04:03;42.73;;;24.70;;
18748;SDS011;9503;53.560;10.246;2022-09-24T09:06:50;40.27;;;25.13;;
18748;SDS011;9503;53.560;10.246;2022-09-24T09:09:40;37.07;;;24.00;;
18748;SDS011;9503;53.560;10.246;2022-09-24T09:12:16;42.27;;;26.20;;
18748;SDS011;9503;53.560;10.246;2022-09-24T09:14:49;47.80;;;27.97;;
18748;SDS011;9503;53.560;10.246;2022-09-24T09:17:28;43.00;;;25.23;;
18748;SDS011;9503;53.560;10.246;2022-09-24T09:20:02;46.30;;;25.30;;
18748;SDS011;9503;53.560;10.246;2022-09-24T09:22:34;43.03;;;26.00;;
18748;SDS011;9503;53.560;10.246;2022-09-24T09:25:17;39.73;;;23.97;;
18748;SDS011;9503;53.560;10.246;2022-09-24T09:27:48;40.57;;;24.43;;
18748;SDS011;9503;53.560;10.246;2022-09-24T09:30:20;38.40;;;23.93;;
18748;SDS011;9503;53.560;10.246;2022-09-24T09:32:54;43.47;;;25.80;;
18748;SDS011;9503;53.560;10.246;2022-09-24T09:35:34;41.70;;;25.40;;
18748;SDS011;9503;53.560;10.246;2022-09-24T09:38:06;48.80;;;27.00;;
18748;SDS011;9503;53.560;10.246;2022-09-24T09:40:44;43.23;;;25.10;;
18748;SDS011;9503;53.560;10.246;2022-09-24T09:43:16;43.00;;;25.47;;
18748;SDS011;9503;53.560;10.246;2022-09-24T09:45:50;42.67;;;24.87;;
18748;SDS011;9503;53.560;10.246;2022-09-24T09:48:25;44.33;;;24.63;;
18748;SDS011;9503;53.560;10.246;2022-09-24T09:50:58;49.23;;;26.00;;
18748;SDS011;9503;53.560;10.246;2022-09-24T09:53:28;44.57;;;25.93;;
18748;SDS011;9503;53.560;10.246;2022-09-24T09:55:56;39.80;;;25.73;;
18748;SDS011;9503;53.560;10.246;2022-09-24T09:58:25;47.77;;;27.83;;
18748;SDS011;9503;53.560;10.246;2022-09-24T10:01:03;44.57;;;26.27;;
18748;SDS011;9503;53.560;10.246;2022-09-24T10:03:33;48.57;;;26.70;;
18748;SDS011;9503;53.560;10.246;2022-09-24T10:06:12;40.33;;;25.10;;
18748;SDS011;9503;53.560;10.246;2022-09-24T10:08:49;47.37;;;26.47;;
18748;SDS011;9503;53.560;10.246;2022-09-24T10:11:17;43.23;;;26.37;;
18748;SDS011;9503;53.560;10.246;2022-09-24T10:13:46;44.53;;;25.97;;
18748;SDS011;9503;53.560;10.246;2022-09-24T10:16:28;44.30;;;26.73;;
18748;SDS011;9503;53.560;10.246;2022-09-24T10:19:09;50.97;;;28.17;;
18748;SDS011;9503;53.560;10.246;2022-09-24T10:21:43;47.87;;;27.27;;
18748;SDS011;9503;53.560;10.246;2022-09-24T10:24:11;46.60;;;27.13;;
18748;SDS011;9503;53.560;10.246;2022-09-24T10:26:42;45.43;;;26.30;;
18748;SDS011;9503;53.560;10.246;2022-09-24T10:29:11;44.90;;;27.40;;
18748;SDS011;9503;53.560;10.246;2022-09-24T10:32:00;49.77;;;28.07;;
18748;SDS011;9503;53.560;10.246;2022-09-24T10:34:29;42.60;;;25.43;;
18748;SDS011;9503;53.560;10.246;2022-09-24T10:36:59;44.07;;;26.23;;
18748;SDS011;9503;53.560;10.246;2022-09-24T10:39:28;44.23;;;26.70;;
18748;SDS011;9503;53.560;10.246;2022-09-24T10:41:56;47.10;;;25.67;;
18748;SDS011;9503;53.560;10.246;2022-09-24T10:44:28;42.50;;;26.90;;
18748;SDS011;9503;53.560;10.246;2022-09-24T10:47:12;45.63;;;26.40;;
18748;SDS011;9503;53.560;10.246;2022-09-24T10:49:51;45.80;;;26.37;;
18748;SDS011;9503;53.560;10.246;2022-09-24T10:52:39;49.50;;;27.30;;
18748;SDS011;9503;53.560;10.246;2022-09-24T10:55:14;43.60;;;26.30;;
18748;SDS011;9503;53.560;10.246;2022-09-24T10:57:56;43.77;;;26.23;;
18748;SDS011;9503;53.560;10.246;2022-09-24T11:00:30;55.70;;;29.93;;
18748;SDS011;9503;53.560;10.246;2022-09-24T11:03:11;43.67;;;26.57;;
18748;SDS011;9503;53.560;10.246;2022-09-24T11:05:55;48.07;;;27.07;;
18748;SDS011;9503;53.560;10.246;2022-09-24T11:08:46;44.73;;;27.70;;
18748;SDS011;9503;53.560;10.246;2022-09-24T11:11:26;45.77;;;26.63;;
18748;SDS011;9503;53.560;10.246;2022-09-24T11:14:08;45.53;;;25.47;;
18748;SDS011;9503;53.560;10.246;2022-09-24T11:20:00;43.00;;;26.67;;
18748;SDS011;9503;53.560;10.246;2022-09-24T11:22:41;49.00;;;26.53;;
18748;SDS011;9503;53.560;10.246;2022-09-24T11:25:20;43.73;;;26.10;;
18748;SDS011;9503;53.560;10.246;2022-09-24T11:28:14;49.97;;;28.07;;
18748;SDS011;9503;53.560;10.246;2022-09-24T11:31:03;45.77;;;26.67;;
18748;SDS011;9503;53.560;10.246;2022-09-24T11:33:46;42.93;;;26.90;;
18748;SDS011;9503;53.560;10.246;2022-09-24T11:36:32;45.47;;;27.37;;
18748;SDS011;9503;53.560;10.246;2022-09-24T11:39:24;41.67;;;26.67;;
18748;SDS011;9503;53.560;10.246;2022-09-24T11:42:01;42.30;;;25.67;;
18748;SDS011;9503;53.560;10.246;2022-09-24T11:47:50;44.67;;;24.20;;
18748;SDS011;9503;53.560;10.246;2022-09-24T11:50:33;37.30;;;24.77;;
18748;SDS011;9503;53.560;10.246;2022-09-24T11:53:13;39.93;;;24.57;;
18748;SDS011;9503;53.560;10.246;2022-09-24T11:55:47;41.73;;;23.33;;
18748;SDS011;9503;53.560;10.246;2022-09-24T11:58:19;41.80;;;25.17;;
18748;SDS011;9503;53.560;10.246;2022-09-24T12:00:52;42.33;;;25.20;;
18748;SDS011;9503;53.560;10.246;2022-09-24T12:03:23;36.73;;;22.93;;
18748;SDS011;9503;53.560;10.246;2022-09-24T12:06:01;37.30;;;23.17;;
18748;SDS011;9503;53.560;10.246;2022-09-24T12:08:35;39.53;;;23.80;;
18748;SDS011;9503;53.560;10.246;2022-09-24T12:11:07;39.40;;;23.80;;
18748;SDS011;9503;53.560;10.246;2022-09-24T12:13:41;39.87;;;24.97;;
18748;SDS011;9503;53.560;10.246;2022-09-24T12:16:14;46.27;;;24.47;;
18748;SDS011;9503;53.560;10.246;2022-09-24T12:18:45;38.23;;;23.23;;
18748;SDS011;9503;53.560;10.246;2022-09-24T12:21:20;36.53;;;23.27;;
18748;SDS011;9503;53.560;10.246;2022-09-24T12:23:53;37.13;;;22.93;;
18748;SDS011;9503;53.560;10.246;2022-09-24T12:26:27;36.53;;;22.57;;
18748;SDS011;9503;53.560;10.246;2022-09-24T12:28:57;37.37;;;23.37;;
18748;SDS011;9503;53.560;10.246;2022-09-24T12:31:47;34.43;;;23.30;;
18748;SDS011;9503;53.560;10.246;2022-09-24T12:34:39;39.03;;;23.73;;
18748;SDS011;9503;53.560;10.246;2022-09-24T12:37:12;41.13;;;26.40;;
18748;SDS011;9503;53.560;10.246;2022-09-24T12:39:46;46.67;;;25.83;;
18748;SDS011;9503;53.560;10.246;2022-09-24T12:42:20;34.17;;;21.87;;
18748;SDS011;9503;53.560;10.246;2022-09-24T12:44:50;39.77;;;25.20;;
18748;SDS011;9503;53.560;10.246;2022-09-24T12:47:20;42.83;;;25.63;;
18748;SDS011;9503;53.560;10.246;2022-09-24T12:49:51;36.77;;;24.30;;
18748;SDS011;9503;53.560;10.246;2022-09-24T12:52:24;41.40;;;24.30;;
18748;SDS011;9503;53.560;10.246;2022-09-24T12:54:56;40.37;;;25.70;;
18748;SDS011;9503;53.560;10.246;2022-09-24T12:57:26;39.07;;;25.50;;
18748;SDS011;9503;53.560;10.246;2022-09-24T13:00:03;42.83;;;26.77;;
18748;SDS011;9503;53.560;10.246;2022-09-24T13:02:51;39.10;;;25.20;;
18748;SDS011;9503;53.560;10.246;2022-09-24T13:05:25;37.63;;;24.73;;
18748;SDS011;9503;53.560;10.246;2022-09-24T13:07:58;39.50;;;25.37;;
18748;SDS011;9503;53.560;10.246;2022-09-24T13:10:29;40.63;;;26.07;;
18748;SDS011;9503;53.560;10.246;2022-09-24T13:12:58;35.50;;;24.00;;
18748;SDS011;9503;53.560;10.246;2022-09-24T13:15:42;40.53;;;24.60;;
18748;SDS011;9503;53.560;10.246;2022-09-24T13:18:28;38.73;;;24.63;;
18748;SDS011;9503;53.560;10.246;2022-09-24T13:20:59;38.97;;;24.87;;
18748;SDS011;9503;53.560;10.246;2022-09-24T13:23:32;39.87;;;25.03;;
18748;SDS011;9503;53.560;10.246;2022-09-24T13:26:24;42.87;;;27.90;;
18748;SDS011;9503;53.560;10.246;2022-09-24T13:28:54;37.20;;;24.00;;
18748;SDS011;9503;53.560;10.246;2022-09-24T13:31:31;43.40;;;26.33;;
18748;SDS011;9503;53.560;10.246;2022-09-24T13:34:11;36.43;;;25.03;;
18748;SDS011;9503;53.560;10.246;2022-09-24T13:36:44;37.53;;;24.50;;
18748;SDS011;9503;53.560;10.246;2022-09-24T13:39:15;38.80;;;26.57;;
18748;SDS011;9503;53.560;10.246;2022-09-24T13:41:49;32.57;;;23.27;;
18748;SDS011;9503;53.560;10.246;2022-09-24T13:44:22;35.77;;;23.97;;
18748;SDS011;9503;53.560;10.246;2022-09-24T13:46:55;35.00;;;24.03;;
18748;SDS011;9503;53.560;10.246;2022-09-24T13:49:30;37.60;;;24.53;;
18748;SDS011;9503;53.560;10.246;2022-09-24T13:52:04;38.27;;;24.00;;
18748;SDS011;9503;53.560;10.246;2022-09-24T13:54:38;35.83;;;24.67;;
18748;SDS011;9503;53.560;10.246;2022-09-24T13:57:18;33.87;;;23.07;;
18748;SDS011;9503;53.560;10.246;2022-09-24T13:59:47;35.97;;;24.17;;
18748;SDS011;9503;53.560;10.246;2022-09-24T14:02:24;39.80;;;25.90;;
18748;SDS011;9503;53.560;10.246;2022-09-24T14:04:54;32.07;;;21.83;;
18748;SDS011;9503;53.560;10.246;2022-09-24T14:07:23;40.50;;;25.37;;
18748;SDS011;9503;53.560;10.246;2022-09-24T14:10:00;32.30;;;23.00;;
18748;SDS011;9503;53.560;10.246;2022-09-24T14:12:31;39.27;;;26.20;;
18748;SDS011;9503;53.560;10.246;2022-09-24T14:14:58;41.70;;;26.27;;
18748;SDS011;9503;53.560;10.246;2022-09-24T14:17:28;38.70;;;25.60;;
18748;SDS011;9503;53.560;10.246;2022-09-24T14:19:56;42.63;;;26.70;;
18748;SDS011;9503;53.560;10.246;2022-09-24T14:22:25;45.73;;;27.13;;
18748;SDS011;9503;53.560;10.246;2022-09-24T14:24:57;42.20;;;26.17;;
18748;SDS011;9503;53.560;10.246;2022-09-24T14:27:27;41.37;;;25.50;;
18748;SDS011;9503;53.560;10.246;2022-09-24T14:30:02;37.50;;;25.80;;
18748;SDS011;9503;53.560;10.246;2022-09-24T14:32:32;40.53;;;26.73;;
18748;SDS011;9503;53.560;10.246;2022-09-24T14:35:04;38.50;;;26.13;;
18748;SDS011;9503;53.560;10.246;2022-09-24T14:37:38;43.70;;;26.13;;
18748;SDS011;9503;53.560;10.246;2022-09-24T14:40:14;45.70;;;27.57;;
18748;SDS011;9503;53.560;10.246;2022-09-24T14:42:44;38.87;;;25.77;;
18748;SDS011;9503;53.560;10.246;2022-09-24T14:45:16;39.80;;;26.63;;
18748;SDS011;9503;53.560;10.246;2022-09-24T14:47:46;39.42;;;25.42;;
18748;SDS011;9503;53.560;10.246;2022-09-24T14:50:26;40.63;;;27.33;;
18748;SDS011;9503;53.560;10.246;2022-09-24T14:53:00;39.67;;;26.13;;
18748;SDS011;9503;53.560;10.246;2022-09-24T14:55:37;34.03;;;25.07;;
18748;SDS011;9503;53.560;10.246;2022-09-24T14:58:20;40.40;;;26.33;;
18748;SDS011;9503;53.560;10.246;2022-09-24T15:00:49;43.47;;;25.67;;
18748;SDS011;9503;53.560;10.246;2022-09-24T15:03:22;37.77;;;24.70;;